Time;durP1;ratioP1;P1;durP2;ratioP2;P2;SDS_P1;SDS_P2;PMS_P1;PMS_P2;Temp;Humidity;BMP_temperature;BMP_pressure;BME280_temperature;BME280_humidity;BME280_pressure;Samples;Min_cycle;Max_cycle;Signal;HPM_P1;HPM_P2
2021/01/11 00:02:04;;;;;;;13.90;9.68;;;;;;;-0.31;80.20;100995.63;5055472;28;20091;-76
2021/01/11 00:04:30;;;;;;;15.35;9.98;;;;;;;-0.37;81.16;100985.16;5054281;28;20049;-76
2021/01/11 00:06:57;;;;;;;22.15;10.65;;;;;;;-0.32;82.07;100994.75;5055271;28;20128;-76
2021/01/11 00:09:23;;;;;;;20.80;9.88;;;;;;;-0.35;81.22;100989.53;5055208;28;20053;-76
2021/01/11 00:11:50;;;;;;;15.15;9.23;;;;;;;-0.40;79.93;100966.81;5054999;28;20083;-76
2021/01/11 00:14:17;;;;;;;15.93;9.55;;;;;;;-0.33;79.95;100972.00;5055067;28;20067;-77
2021/01/11 00:16:43;;;;;;;16.95;9.90;;;;;;;-0.44;80.57;100948.44;5054697;28;20256;-76
2021/01/11 00:19:09;;;;;;;14.02;9.23;;;;;;;-0.51;81.23;100937.97;5054120;28;20335;-78
2021/01/11 00:21:35;;;;;;;14.05;9.52;;;;;;;-0.65;81.10;100907.41;5053808;28;20052;-76
2021/01/11 00:24:02;;;;;;;15.23;9.13;;;;;;;-0.44;80.46;100942.34;5055095;28;20049;-78
2021/01/11 00:26:28;;;;;;;18.25;9.63;;;;;;;-0.35;79.73;100936.16;5055376;28;20049;-75
2021/01/11 00:28:54;;;;;;;14.55;8.63;;;;;;;-0.33;80.16;100942.31;5055053;28;20048;-77
2021/01/11 00:31:25;;;;;;;19.58;8.48;;;;;;;-0.27;79.51;100944.91;5055469;28;20395;-78
2021/01/11 00:33:52;;;;;;;13.38;8.25;;;;;;;-0.20;80.14;100949.25;5055276;28;20053;-77
2021/01/11 00:36:20;;;;;;;14.90;8.50;;;;;;;-0.21;79.60;100957.13;5055742;28;20052;-77
2021/01/11 00:38:47;;;;;;;13.20;8.20;;;;;;;-0.19;79.35;100955.34;5055036;28;20373;-75
2021/01/11 00:41:20;;;;;;;14.10;8.50;;;;;;;-0.07;78.95;100954.44;5056321;28;20065;-76
2021/01/11 00:43:47;;;;;;;13.77;8.98;;;;;;;-0.13;78.58;100951.88;5054117;28;20052;-77
2021/01/11 00:46:21;;;;;;;12.77;8.02;;;;;;;-0.06;78.65;100951.81;5053910;28;20054;-75
2021/01/11 00:48:48;;;;;;;14.00;7.82;;;;;;;-0.02;78.64;100950.03;5054871;28;20103;-75
2021/01/11 00:51:14;;;;;;;15.98;8.75;;;;;;;-0.02;78.23;100964.06;5054759;28;20393;-76
2021/01/11 00:53:40;;;;;;;18.58;9.35;;;;;;;-0.32;78.79;100925.69;5053533;28;20057;-75
2021/01/11 00:56:06;;;;;;;12.68;8.55;;;;;;;0.02;78.55;100971.91;5055142;28;20052;-75
2021/01/11 00:58:32;;;;;;;15.48;8.60;;;;;;;-0.03;78.87;100962.31;5054875;28;20061;-77
2021/01/11 01:00:58;;;;;;;17.92;9.50;;;;;;;0.18;78.49;100963.09;5053687;28;20052;-74
2021/01/11 01:03:25;;;;;;;15.43;8.82;;;;;;;0.07;78.50;100968.41;5054917;28;20049;-74
2021/01/11 01:05:51;;;;;;;18.45;8.65;;;;;;;-0.05;79.26;100961.44;5054479;28;20351;-76
2021/01/11 01:08:17;;;;;;;14.30;9.23;;;;;;;-0.06;79.28;100966.69;5055623;28;20045;-75
2021/01/11 01:10:43;;;;;;;14.88;8.30;;;;;;;0.05;79.79;100957.00;5058597;28;20063;-76
2021/01/11 01:13:09;;;;;;;20.17;9.73;;;;;;;0.02;80.63;100957.03;5058609;28;20059;-74
2021/01/11 01:15:36;;;;;;;13.48;9.07;;;;;;;0.03;79.91;100957.91;5058155;28;20053;-76
2021/01/11 01:18:03;;;;;;;13.90;8.82;;;;;;;-0.05;80.36;100960.56;5057097;28;20056;-76
2021/01/11 01:20:29;;;;;;;17.60;8.77;;;;;;;-0.12;79.64;100943.09;5058394;28;20068;-77
2021/01/11 01:22:55;;;;;;;15.45;8.32;;;;;;;-0.04;79.44;100960.53;5058289;28;20045;-76
2021/01/11 01:25:21;;;;;;;16.15;9.43;;;;;;;-0.11;80.34;100955.34;5056923;28;20045;-77
2021/01/11 01:27:47;;;;;;;17.80;10.25;;;;;;;-0.12;80.72;100962.31;5058026;28;20358;-77
2021/01/11 01:30:13;;;;;;;17.65;8.93;;;;;;;-0.16;80.89;100950.97;5058215;28;20053;-75
2021/01/11 01:32:40;;;;;;;17.08;10.18;;;;;;;-0.11;80.86;100939.59;5056745;28;20075;-76
2021/01/11 01:35:12;;;;;;;17.65;9.32;;;;;;;0.02;80.89;100983.28;5057649;28;20052;-75
2021/01/11 01:37:38;;;;;;;17.63;9.45;;;;;;;0.07;80.78;100960.53;5058368;28;20053;-75
2021/01/11 01:40:06;;;;;;;17.25;10.45;;;;;;;0.11;81.50;100971.88;5058061;28;20055;-76
2021/01/11 01:42:32;;;;;;;20.88;9.52;;;;;;;0.05;81.05;100949.13;5056965;28;20052;-74
2021/01/11 01:44:58;;;;;;;19.45;10.77;;;;;;;0.12;80.82;100956.09;5056430;28;20106;-76
2021/01/11 01:47:25;;;;;;;18.98;11.23;;;;;;;0.16;81.12;100961.34;5057845;28;20107;-76
2021/01/11 01:49:52;;;;;;;22.75;11.85;;;;;;;0.17;81.04;100970.97;5057395;28;20091;-76
2021/01/11 01:52:18;;;;;;;24.80;12.77;;;;;;;0.20;81.27;100955.19;5056666;28;20052;-78
2021/01/11 01:54:45;;;;;;;27.42;13.50;;;;;;;0.02;82.25;100950.91;5056343;28;20061;-77
2021/01/11 01:57:12;;;;;;;25.25;13.85;;;;;;;0.11;81.58;100951.72;5057425;28;20461;-76
2021/01/11 01:59:42;;;;;;;27.95;15.35;;;;;;;0.06;82.28;100952.66;5057633;28;20053;-78
2021/01/11 02:02:14;;;;;;;27.73;14.17;;;;;;;0.11;82.50;100950.88;5057422;28;20053;-77
2021/01/11 02:04:41;;;;;;;27.63;13.98;;;;;;;0.07;82.41;100949.13;5057357;28;20056;-77
2021/01/11 02:07:25;;;;;;;28.85;15.85;;;;;;;0.13;82.76;100954.34;5057211;28;20047;-78
2021/01/11 02:10:17;;;;;;;32.53;14.90;;;;;;;0.24;82.82;100967.44;5056581;28;20426;-76
2021/01/11 02:13:00;;;;;;;28.98;14.68;;;;;;;0.17;82.86;100955.22;5049713;28;20061;-75
2021/01/11 02:15:40;;;;;;;31.50;15.25;;;;;;;0.17;83.25;100977.09;5057278;28;20488;-75
2021/01/11 02:18:11;;;;;;;31.92;16.30;;;;;;;0.12;83.16;100977.09;5057132;28;20339;-76
2021/01/11 02:20:59;;;;;;;30.33;17.17;;;;;;;0.08;83.45;100978.00;5057083;28;20049;-76
2021/01/11 02:23:51;;;;;;;32.33;16.67;;;;;;;0.09;83.47;100976.25;5056692;28;20171;-75
2021/01/11 02:26:39;;;;;;;36.90;17.77;;;;;;;0.04;83.95;100968.41;5055798;28;20053;-75
2021/01/11 02:29:41;;;;;;;40.75;17.70;;;;;;;0.12;83.68;100963.13;5059577;28;20067;-75
2021/01/11 02:32:09;;;;;;;42.50;20.05;;;;;;;0.05;84.39;100964.88;5038488;28;20110;-76
2021/01/11 02:34:37;;;;;;;40.00;21.08;;;;;;;0.08;84.56;100964.88;5057714;28;20079;-76
2021/01/11 02:37:05;;;;;;;38.70;20.35;;;;;;;0.04;84.40;100959.66;5057081;28;20045;-77
2021/01/11 02:39:31;;;;;;;48.22;21.77;;;;;;;0.00;84.54;100953.56;5055820;28;20053;-76
2021/01/11 02:41:57;;;;;;;39.60;19.90;;;;;;;0.00;84.55;100964.06;5056245;28;20071;-78
2021/01/11 02:44:23;;;;;;;43.22;21.90;;;;;;;-0.01;85.12;100957.03;5057593;28;20064;-75
2021/01/11 02:46:50;;;;;;;39.63;21.85;;;;;;;0.00;84.58;100964.06;5057038;28;20045;-76
2021/01/11 02:49:32;;;;;;;51.90;23.40;;;;;;;0.10;85.15;100971.00;5055352;28;20103;-75
2021/01/11 02:52:12;;;;;;;41.70;22.63;;;;;;;0.07;84.92;100964.88;5056448;28;20427;-76
2021/01/11 02:54:40;;;;;;;42.42;22.23;;;;;;;0.05;85.20;100967.50;5056226;28;20099;-76
2021/01/11 02:57:40;;;;;;;43.08;23.00;;;;;;;0.05;84.88;100967.50;5056520;28;20087;-76
2021/01/11 03:00:09;;;;;;;46.88;23.13;;;;;;;-0.02;85.85;100969.31;5056319;28;20048;-75
2021/01/11 03:02:41;;;;;;;45.83;20.98;;;;;;;-0.02;85.74;100947.41;5055203;28;20049;-74
2021/01/11 03:05:09;;;;;;;46.33;23.60;;;;;;;0.01;85.75;100951.78;5055378;28;20048;-74
2021/01/11 03:07:35;;;;;;;45.65;22.15;;;;;;;-0.03;85.54;100932.56;5056101;28;20194;-74
2021/01/11 03:10:01;;;;;;;42.10;20.77;;;;;;;-0.20;85.51;100902.03;5056283;28;20056;-75
2021/01/11 03:12:27;;;;;;;42.50;21.30;;;;;;;-0.07;85.83;100920.31;5056101;28;20102;-76
2021/01/11 03:14:53;;;;;;;40.55;20.17;;;;;;;0.04;85.30;100925.53;5054968;28;20175;-76
2021/01/11 03:17:19;;;;;;;35.13;19.02;;;;;;;-0.04;84.80;100925.56;5056090;28;20045;-76
2021/01/11 03:19:46;;;;;;;31.80;18.60;;;;;;;0.00;84.22;100916.81;5056356;28;20098;-74
2021/01/11 03:22:12;;;;;;;35.90;19.85;;;;;;;-0.09;84.57;100906.34;5056102;28;20084;-75
2021/01/11 03:24:40;;;;;;;31.13;17.15;;;;;;;-0.03;84.84;100906.31;5054719;28;20076;-76
2021/01/11 03:27:06;;;;;;;29.77;15.60;;;;;;;-0.02;84.83;100905.44;5055628;28;20143;-73
2021/01/11 03:29:32;;;;;;;35.75;16.63;;;;;;;-0.03;84.11;100907.19;5054633;28;20064;-74
2021/01/11 03:31:58;;;;;;;24.02;14.02;;;;;;;-0.11;83.23;100901.09;5054991;28;20053;-76
2021/01/11 03:34:25;;;;;;;25.17;14.57;;;;;;;-0.09;83.83;100911.59;5055265;28;20134;-75
2021/01/11 03:36:51;;;;;;;27.83;13.82;;;;;;;-0.04;83.12;100902.81;5055815;28;20060;-76
2021/01/11 03:39:17;;;;;;;24.75;13.00;;;;;;;-0.15;82.68;100907.25;5055652;28;20061;-77
2021/01/11 03:41:46;;;;;;;20.83;11.85;;;;;;;-0.11;82.43;100890.59;5054334;28;20493;-76
2021/01/11 03:44:13;;;;;;;22.38;11.32;;;;;;;-0.17;82.07;100899.38;5055441;28;20064;-74
2021/01/11 03:46:39;;;;;;;19.25;10.27;;;;;;;-0.17;82.27;100903.75;5055534;28;20124;-76
2021/01/11 03:49:05;;;;;;;19.48;11.07;;;;;;;-0.26;82.19;100903.78;5055186;28;20068;-76
2021/01/11 03:51:32;;;;;;;22.05;11.40;;;;;;;-0.30;82.58;100888.06;5055236;28;20083;-75
2021/01/11 03:53:58;;;;;;;18.10;11.15;;;;;;;-0.19;83.00;100893.28;5055357;28;20056;-74
2021/01/11 03:56:24;;;;;;;21.85;10.95;;;;;;;-0.11;82.62;100892.38;5055127;28;20152;-74
2021/01/11 03:58:50;;;;;;;19.45;12.10;;;;;;;-0.18;82.45;100889.78;5037893;28;20056;-77
2021/01/11 04:01:17;;;;;;;20.23;11.85;;;;;;;-0.09;82.76;100890.59;5055212;28;20132;-74
2021/01/11 04:03:43;;;;;;;18.55;11.07;;;;;;;-0.11;82.62;100903.72;5055048;28;20049;-75
2021/01/11 04:06:09;;;;;;;23.48;11.48;;;;;;;0.00;82.42;100903.69;5053916;28;20044;-76
2021/01/11 04:08:35;;;;;;;22.65;11.95;;;;;;;0.00;82.55;100898.44;5054969;28;20088;-74
2021/01/11 04:11:03;;;;;;;24.02;12.73;;;;;;;-0.13;83.04;100895.00;5055380;28;20362;-74
2021/01/11 04:13:29;;;;;;;20.30;11.82;;;;;;;-0.04;82.93;100897.56;5055022;28;20106;-75
2021/01/11 04:15:57;;;;;;;22.50;12.98;;;;;;;-0.18;83.75;100884.53;5054819;28;20056;-76
2021/01/11 04:18:24;;;;;;;22.65;13.80;;;;;;;-0.04;83.73;100891.44;5053873;28;20506;-77
2021/01/11 04:20:51;;;;;;;20.60;14.25;;;;;;;-0.02;83.82;100881.81;5054805;28;20516;-76
2021/01/11 04:23:17;;;;;;;30.05;16.08;;;;;;;-0.03;84.04;100875.72;5053715;28;20717;-76
2021/01/11 04:25:43;;;;;;;29.30;16.70;;;;;;;0.16;84.09;100886.06;5054796;28;20053;-74
2021/01/11 04:28:09;;;;;;;25.98;16.40;;;;;;;0.15;83.62;100873.84;5054120;28;20056;-75
2021/01/11 04:30:35;;;;;;;31.20;16.30;;;;;;;0.11;84.62;100878.22;5054681;28;20063;-75
2021/01/11 04:33:01;;;;;;;22.75;15.13;;;;;;;0.20;84.22;100884.28;5055006;28;20060;-76
2021/01/11 04:35:28;;;;;;;27.50;16.90;;;;;;;0.08;83.76;100883.50;5054328;28;20071;-76
2021/01/11 04:37:56;;;;;;;21.30;13.57;;;;;;;0.01;83.98;100880.91;5054766;28;20079;-77
2021/01/11 04:40:23;;;;;;;21.92;12.57;;;;;;;-0.02;83.22;100893.19;5054805;28;20427;-75
2021/01/11 04:43:04;;;;;;;21.10;13.30;;;;;;;-0.16;84.30;100877.50;5055901;28;20389;-75
2021/01/11 04:45:30;;;;;;;23.60;14.32;;;;;;;-0.03;84.00;100890.56;5057271;28;20048;-76
2021/01/11 04:47:59;;;;;;;19.90;13.05;;;;;;;0.05;83.13;100885.28;5057455;28;20057;-76
2021/01/11 04:50:27;;;;;;;21.13;13.10;;;;;;;0.11;83.41;100891.34;5058389;28;20057;-75
2021/01/11 04:52:54;;;;;;;20.35;12.73;;;;;;;0.02;83.33;100886.16;5057430;28;20058;-74
2021/01/11 04:55:21;;;;;;;24.85;11.68;;;;;;;0.04;82.38;100891.41;5058294;28;20056;-77
2021/01/11 04:57:54;;;;;;;17.50;10.95;;;;;;;-0.01;82.21;100894.94;5058377;28;20048;-76
2021/01/11 05:00:26;;;;;;;16.52;10.02;;;;;;;-0.02;81.79;100880.06;5057127;28;20098;-74
2021/01/11 05:03:01;;;;;;;19.30;9.75;;;;;;;-0.06;82.28;100870.47;5058319;28;20053;-74
2021/01/11 05:05:33;;;;;;;15.73;8.57;;;;;;;-0.19;80.67;100872.28;5056863;28;20427;-77
2021/01/11 05:07:59;;;;;;;14.60;8.20;;;;;;;-0.06;80.25;100894.06;5058106;28;20057;-74
2021/01/11 05:10:31;;;;;;;11.57;7.93;;;;;;;-0.20;79.88;100888.91;5058179;28;20320;-75
2021/01/11 05:12:57;;;;;;;17.55;8.35;;;;;;;-0.31;80.24;100877.59;5058145;28;20056;-75
2021/01/11 05:15:25;;;;;;;14.05;7.70;;;;;;;-0.32;80.87;100879.31;5057927;28;20056;-74
2021/01/11 05:17:53;;;;;;;14.10;7.80;;;;;;;-0.36;80.05;100869.75;5058261;28;20114;-75
2021/01/11 05:20:22;;;;;;;13.55;7.60;;;;;;;-0.38;80.16;100860.13;5057136;28;20103;-76
2021/01/11 05:22:49;;;;;;;17.58;8.40;;;;;;;-0.33;80.18;100864.47;5053732;28;20121;-75
2021/01/11 05:25:23;;;;;;;12.65;8.38;;;;;;;-0.34;80.17;100869.72;5037087;28;20423;-74
2021/01/11 05:28:11;;;;;;;13.93;8.18;;;;;;;-0.35;81.21;100862.72;5055937;28;20427;-75
2021/01/11 05:30:45;;;;;;;16.40;9.40;;;;;;;-0.55;81.19;100830.47;5057943;28;20061;-76
2021/01/11 05:33:23;;;;;;;15.20;8.32;;;;;;;-0.40;80.44;100864.53;5036947;28;20050;-74
2021/01/11 05:36:08;;;;;;;17.17;8.95;;;;;;;-0.35;80.88;100852.22;5037540;28;20431;-74
2021/01/11 05:38:46;;;;;;;15.10;9.18;;;;;;;-0.32;80.75;100865.34;5037898;28;20076;-74
2021/01/11 05:41:19;;;;;;;13.30;7.97;;;;;;;-0.30;79.68;100864.47;5040081;28;20132;-74
2021/01/11 05:44:06;;;;;;;11.95;7.93;;;;;;;-0.38;79.53;100868.84;5056715;28;20061;-74
2021/01/11 05:46:32;;;;;;;13.95;8.93;;;;;;;-0.51;79.91;100875.91;5056292;28;20494;-74
2021/01/11 05:49:01;;;;;;;15.98;8.75;;;;;;;-0.39;80.74;100882.00;5057583;28;20060;-77
2021/01/11 05:51:28;;;;;;;14.20;8.82;;;;;;;-0.31;80.56;100891.59;5056504;28;20055;-76
2021/01/11 05:53:55;;;;;;;12.02;8.13;;;;;;;-0.35;79.53;100875.84;5055920;28;20053;-76
2021/01/11 05:56:23;;;;;;;19.13;9.45;;;;;;;-0.32;80.13;100875.84;5057232;28;20414;-75
2021/01/11 05:59:02;;;;;;;16.20;9.40;;;;;;;-0.37;80.73;100873.25;5057207;28;20053;-77
2021/01/11 06:01:30;;;;;;;19.60;9.00;;;;;;;-0.22;80.27;100869.66;5058570;28;20056;-75
2021/01/11 06:04:05;;;;;;;21.30;10.25;;;;;;;-0.51;80.75;100843.56;5037509;28;20053;-75
2021/01/11 06:06:31;;;;;;;20.65;11.45;;;;;;;-0.38;81.39;100849.63;5037216;28;20049;-76
2021/01/11 06:08:58;;;;;;;19.45;11.73;;;;;;;-0.29;81.70;100853.09;5037529;28;20053;-76
2021/01/11 06:11:26;;;;;;;17.10;11.35;;;;;;;-0.31;81.53;100843.47;5036143;28;20493;-76
2021/01/11 06:13:58;;;;;;;28.30;12.75;;;;;;;-0.32;81.76;100847.84;5038219;28;20485;-76
2021/01/11 06:16:26;;;;;;;21.70;11.55;;;;;;;-0.27;81.88;100853.09;5055440;28;20056;-75
2021/01/11 06:18:53;;;;;;;19.45;12.43;;;;;;;-0.43;81.84;100828.69;5056818;28;20183;-75
2021/01/11 06:21:20;;;;;;;18.25;11.68;;;;;;;-0.28;82.12;100844.34;5055794;28;20124;-76
2021/01/11 06:23:47;;;;;;;23.33;13.23;;;;;;;-0.22;82.07;100843.41;5057120;28;20053;-75
2021/01/11 06:26:32;;;;;;;21.02;10.93;;;;;;;-0.20;81.77;100836.44;5057001;28;20041;-76
2021/01/11 06:28:58;;;;;;;16.30;10.13;;;;;;;-0.16;81.17;100835.53;5056738;28;20059;-76
2021/01/11 06:31:34;;;;;;;18.05;11.35;;;;;;;-0.17;81.00;100831.16;5055607;28;20053;-76
2021/01/11 06:34:00;;;;;;;19.30;10.48;;;;;;;-0.19;81.19;100837.28;5065080;28;20130;-75
2021/01/11 06:36:33;;;;;;;14.70;10.07;;;;;;;-0.18;80.75;100846.91;5054052;28;20061;-75
2021/01/11 06:39:08;;;;;;;16.05;9.40;;;;;;;-0.19;80.27;100848.66;5066302;28;20122;-76
2021/01/11 06:41:35;;;;;;;15.93;8.82;;;;;;;-0.20;79.20;100852.19;5070883;28;20049;-75
2021/01/11 06:44:07;;;;;;;15.07;8.80;;;;;;;-0.20;79.04;100865.31;5075232;28;20052;-76
2021/01/11 06:46:42;;;;;;;14.05;7.78;;;;;;;-0.07;78.48;100879.22;5076496;28;20048;-75
2021/01/11 06:49:22;;;;;;;14.25;8.85;;;;;;;-0.13;79.81;100878.38;5057819;28;20052;-76
2021/01/11 06:51:57;;;;;;;14.00;8.38;;;;;;;-0.13;78.96;100881.00;5071973;28;20076;-75
2021/01/11 06:54:34;;;;;;;11.63;7.97;;;;;;;-0.18;78.58;100878.38;5076489;28;20056;-76
2021/01/11 06:57:07;;;;;;;12.98;7.32;;;;;;;-0.21;79.25;100876.66;5076233;28;20059;-76
2021/01/11 06:59:37;;;;;;;17.73;9.63;;;;;;;-0.15;80.09;100876.63;5076200;28;20347;-74
2021/01/11 07:02:23;;;;;;;12.13;8.60;;;;;;;-0.23;79.74;100857.44;5064906;28;20049;-76
2021/01/11 07:04:51;;;;;;;15.98;8.43;;;;;;;-0.33;80.03;100829.50;5054861;28;20059;-74
2021/01/11 07:07:19;;;;;;;16.63;8.85;;;;;;;-0.27;80.67;100829.47;5037582;28;20051;-76
2021/01/11 07:10:04;;;;;;;16.52;9.93;;;;;;;-0.17;80.42;100836.41;5046820;28;20105;-76
2021/01/11 07:12:30;;;;;;;15.73;8.75;;;;;;;-0.24;80.18;100834.69;5067417;28;20288;-76
2021/01/11 07:15:14;;;;;;;16.42;9.38;;;;;;;-0.32;80.22;100826.00;5068166;28;20072;-77
2021/01/11 07:17:43;;;;;;;15.80;9.15;;;;;;;-0.29;80.02;100831.22;5055652;28;20111;-76
2021/01/11 07:20:11;;;;;;;17.05;9.68;;;;;;;-0.28;80.90;100827.72;5055646;28;20350;-76
2021/01/11 07:22:40;;;;;;;18.02;9.82;;;;;;;-0.29;80.76;100825.97;5055310;28;20463;-77
2021/01/11 07:25:19;;;;;;;16.17;9.57;;;;;;;-0.29;80.30;100810.22;5055860;28;20049;-76
2021/01/11 07:27:46;;;;;;;23.42;11.80;;;;;;;-0.26;81.25;100820.72;5055585;28;20049;-75
2021/01/11 07:30:12;;;;;;;17.90;11.45;;;;;;;-0.33;81.52;100822.50;5037962;28;20353;-78
2021/01/11 07:32:40;;;;;;;22.13;12.93;;;;;;;-0.28;81.79;100825.09;5055382;28;20049;-75
2021/01/11 07:35:07;;;;;;;19.77;11.07;;;;;;;-0.39;81.39;100804.16;5052796;28;20146;-75
2021/01/11 07:37:35;;;;;;;23.35;12.93;;;;;;;-0.39;82.51;100813.81;5057531;28;20045;-75
2021/01/11 07:40:09;;;;;;;25.38;12.98;;;;;;;-0.29;82.60;100818.09;5054858;28;20431;-77
2021/01/11 07:42:37;;;;;;;26.25;13.30;;;;;;;-0.23;81.95;100831.19;5055518;28;20426;-77
2021/01/11 07:45:09;;;;;;;23.27;13.45;;;;;;;-0.30;82.44;100806.75;5052141;28;20069;-77
2021/01/11 07:47:36;;;;;;;23.65;14.25;;;;;;;-0.40;83.07;100805.06;5054840;28;20438;-76
2021/01/11 07:50:03;;;;;;;26.83;15.23;;;;;;;-0.29;83.52;100820.72;5037445;28;20053;-76
2021/01/11 07:52:31;;;;;;;25.85;14.68;;;;;;;-0.18;83.57;100818.03;5054144;28;20060;-76
2021/01/11 07:55:05;;;;;;;29.65;14.93;;;;;;;-0.20;82.96;100807.56;5053597;28;20532;-77
2021/01/11 07:57:32;;;;;;;25.45;15.32;;;;;;;-0.20;83.26;100825.06;5053261;28;20089;-76
2021/01/11 08:00:09;;;;;;;26.25;15.45;;;;;;;-0.18;84.00;100820.66;5054405;28;20052;-76
2021/01/11 08:02:36;;;;;;;25.17;14.60;;;;;;;-0.22;84.35;100821.59;5053063;28;20635;-77
2021/01/11 08:05:22;;;;;;;34.70;16.48;;;;;;;-0.17;84.25;100811.91;5036312;28;20056;-77
2021/01/11 08:08:11;;;;;;;26.88;15.52;;;;;;;-0.06;84.07;100817.13;5052072;28;20612;-77
2021/01/11 08:10:37;;;;;;;26.50;14.27;;;;;;;-0.10;84.13;100818.00;5054514;28;20045;-76
2021/01/11 08:13:05;;;;;;;27.67;15.73;;;;;;;-0.18;84.22;100812.78;5058253;28;20509;-77
2021/01/11 08:15:31;;;;;;;25.42;14.52;;;;;;;-0.17;84.54;100818.03;5055242;28;20430;-78
2021/01/11 08:17:58;;;;;;;24.83;15.13;;;;;;;-0.24;84.54;100803.22;5055205;28;20049;-75
2021/01/11 08:20:24;;;;;;;26.35;15.18;;;;;;;-0.06;84.55;100832.88;5058274;28;20095;-80
2021/01/11 08:22:51;;;;;;;25.15;14.73;;;;;;;-0.08;85.10;100825.00;5057946;28;20127;-79
2021/01/11 08:25:18;;;;;;;32.97;16.20;;;;;;;-0.10;85.41;100812.75;5042013;28;20453;-78
2021/01/11 08:27:48;;;;;;;31.10;17.83;;;;;;;-0.25;85.51;100779.59;5057690;28;20099;-78
2021/01/11 08:30:19;;;;;;;31.60;16.77;;;;;;;-0.01;85.78;100804.81;5057168;28;20068;-79
2021/01/11 08:32:46;;;;;;;25.77;15.95;;;;;;;0.00;85.16;100803.97;5055910;28;20044;-77
2021/01/11 08:35:19;;;;;;;28.92;16.55;;;;;;;0.03;85.54;100787.28;5055803;28;20061;-76
2021/01/11 08:37:46;;;;;;;23.30;15.48;;;;;;;-0.10;86.23;100784.78;5054920;28;20041;-77
2021/01/11 08:40:20;;;;;;;30.77;16.25;;;;;;;-0.01;86.79;100794.31;5053658;28;20044;-77
2021/01/11 08:42:47;;;;;;;30.02;16.77;;;;;;;0.04;86.25;100779.41;5054316;28;20415;-78
2021/01/11 08:45:38;;;;;;;26.75;15.32;;;;;;;0.07;86.43;100784.66;5054036;28;20041;-78
2021/01/11 08:48:09;;;;;;;;;;;;;;;0.09;87.01;100780.25;5053995;28;20045;-75
2021/01/11 08:50:40;;;;;;;24.60;14.73;;;;;;;0.08;86.49;100773.28;5054217;28;20230;-77
2021/01/11 08:53:43;;;;;;;28.10;15.27;;;;;;;0.10;85.99;100767.97;5053420;28;20045;-78
2021/01/11 08:56:11;;;;;;;27.27;15.23;;;;;;;0.08;86.29;100761.88;5063328;28;20060;-77
2021/01/11 08:58:47;;;;;;;28.75;14.02;;;;;;;0.06;85.97;100769.75;5055674;28;20441;-77
2021/01/11 09:01:15;;;;;;;22.13;12.85;;;;;;;0.13;85.66;100779.34;5051649;28;20052;-76
2021/01/11 09:03:50;;;;;;;22.75;13.85;;;;;;;0.14;85.92;100774.97;5053338;28;20063;-77
2021/01/11 09:06:40;;;;;;;26.15;14.85;;;;;;;0.13;86.02;100755.69;5059821;28;20091;-76
2021/01/11 09:09:14;;;;;;;25.27;13.63;;;;;;;0.16;86.38;100764.47;5058182;28;20053;-76
2021/01/11 09:11:42;;;;;;;26.40;15.15;;;;;;;0.18;86.69;100766.19;5056120;28;20099;-75
2021/01/11 09:14:10;;;;;;;24.20;14.27;;;;;;;0.21;86.36;100767.94;5055691;28;20327;-75
2021/01/11 09:16:39;;;;;;;25.92;14.27;;;;;;;0.18;86.42;100753.06;5062991;28;20052;-75
2021/01/11 09:19:17;;;;;;;25.58;15.48;;;;;;;0.19;86.48;100767.03;5058525;28;20458;-76
2021/01/11 09:21:56;;;;;;;24.65;15.20;;;;;;;0.19;86.56;100769.66;5059030;28;20048;-75
2021/01/11 09:24:22;;;;;;;27.70;15.05;;;;;;;0.17;86.57;100777.59;5049322;28;20104;-75
2021/01/11 09:26:52;;;;;;;29.13;14.73;;;;;;;0.18;86.63;100773.19;5057588;28;20132;-74
2021/01/11 09:29:19;;;;;;;24.00;15.93;;;;;;;0.24;86.30;100776.66;5060224;28;20052;-75
2021/01/11 09:31:45;;;;;;;26.42;14.02;;;;;;;0.22;86.09;100760.00;5060016;28;20049;-75
2021/01/11 09:34:11;;;;;;;22.42;13.77;;;;;;;0.23;85.79;100761.75;5056321;28;20755;-74
2021/01/11 09:36:39;;;;;;;24.50;14.45;;;;;;;0.20;85.15;100750.41;5060038;28;20382;-79
2021/01/11 09:39:08;;;;;;;26.58;15.55;;;;;;;0.22;85.34;100765.25;5066018;28;20056;-76
2021/01/11 09:41:40;;;;;;;22.75;12.27;;;;;;;0.31;84.91;100756.44;5061800;28;20053;-76
2021/01/11 09:44:07;;;;;;;30.20;14.98;;;;;;;0.24;84.63;100753.03;5058092;28;20056;-78
2021/01/11 09:46:49;;;;;;;27.50;14.82;;;;;;;0.30;84.88;100759.97;5040301;28;20501;-76
2021/01/11 09:49:16;;;;;;;20.00;13.52;;;;;;;0.23;85.10;100758.28;5054182;28;20095;-78
2021/01/11 09:51:43;;;;;;;22.02;14.48;;;;;;;0.34;84.40;100759.06;5062367;28;20374;-75
2021/01/11 09:54:10;;;;;;;23.52;13.27;;;;;;;0.26;84.73;100752.97;5057922;28;20504;-79
2021/01/11 09:56:37;;;;;;;23.23;14.90;;;;;;;0.35;85.25;100775.66;5057212;28;20045;-79
2021/01/11 09:59:06;;;;;;;21.85;12.68;;;;;;;0.38;84.77;100765.16;5057143;28;20430;-74
2021/01/11 10:01:44;;;;;;;22.05;13.68;;;;;;;0.36;84.83;100773.03;5054507;28;20045;-77
2021/01/11 10:04:12;;;;;;;20.63;14.40;;;;;;;0.28;84.67;100764.38;5055722;28;20067;-75
2021/01/11 10:06:50;;;;;;;20.48;12.95;;;;;;;0.43;84.54;100773.00;5056920;28;20423;-80
2021/01/11 10:09:19;;;;;;;22.33;13.50;;;;;;;0.36;84.50;100738.00;5060694;28;20097;-76
2021/01/11 10:11:51;;;;;;;24.17;14.45;;;;;;;0.48;84.76;100744.94;5058675;28;20049;-78
2021/01/11 10:14:17;;;;;;;23.65;13.15;;;;;;;0.56;84.88;100737.84;5060872;28;20044;-76
2021/01/11 10:16:44;;;;;;;24.88;13.65;;;;;;;0.59;85.19;100736.94;5058386;28;20053;-75
2021/01/11 10:19:16;;;;;;;23.67;13.60;;;;;;;0.62;84.88;100727.28;5054243;28;20419;-77
2021/01/11 10:21:43;;;;;;;19.05;12.77;;;;;;;0.61;84.66;100715.00;5058017;28;20053;-78
2021/01/11 10:24:11;;;;;;;22.42;13.50;;;;;;;0.71;84.41;100721.03;5057642;28;20075;-75
2021/01/11 10:26:46;;;;;;;20.27;13.18;;;;;;;0.64;84.77;100714.97;5039579;28;20521;-77
2021/01/11 10:29:16;;;;;;;23.40;13.52;;;;;;;0.73;84.93;100711.38;5057996;28;20049;-76
2021/01/11 10:31:42;;;;;;;22.52;13.60;;;;;;;0.79;85.02;100710.44;5056111;28;20049;-78
2021/01/11 10:34:08;;;;;;;27.77;13.95;;;;;;;0.82;84.78;100702.53;5055839;28;20049;-75
2021/01/11 10:36:39;;;;;;;23.38;14.07;;;;;;;0.78;84.63;100706.06;5055711;28;20057;-76
2021/01/11 10:39:08;;;;;;;21.92;13.10;;;;;;;0.79;85.08;100697.28;5057632;28;20044;-74
2021/01/11 10:41:35;;;;;;;23.67;13.18;;;;;;;0.80;85.44;100704.28;5061338;28;20064;-76
2021/01/11 10:44:05;;;;;;;21.85;13.20;;;;;;;0.81;85.35;100704.28;5062473;28;20045;-76
2021/01/11 10:46:33;;;;;;;23.05;13.82;;;;;;;0.89;84.72;100698.94;5058967;28;20052;-76
2021/01/11 10:49:00;;;;;;;21.98;13.25;;;;;;;0.84;85.20;100684.09;5038836;28;20052;-78
2021/01/11 10:51:26;;;;;;;22.80;13.85;;;;;;;0.91;85.38;100686.63;5055589;28;20092;-76
2021/01/11 10:53:53;;;;;;;22.13;12.73;;;;;;;0.98;85.05;100690.03;5055506;28;20056;-75
2021/01/11 10:56:19;;;;;;;22.10;13.43;;;;;;;0.81;85.32;100671.84;5054370;28;20045;-78
2021/01/11 10:58:45;;;;;;;21.52;13.75;;;;;;;0.88;85.37;100673.50;5054210;28;20439;-78
2021/01/11 11:01:13;;;;;;;28.27;14.27;;;;;;;0.97;85.60;100677.78;5056496;28;20402;-76
2021/01/11 11:03:41;;;;;;;21.48;13.40;;;;;;;1.06;84.48;100674.19;5059398;28;20315;-75
2021/01/11 11:06:08;;;;;;;21.52;12.88;;;;;;;0.96;84.91;100647.16;5055351;28;20439;-76
2021/01/11 11:08:34;;;;;;;21.10;13.70;;;;;;;1.08;85.03;100662.75;5059253;28;20048;-79
2021/01/11 11:11:01;;;;;;;24.65;14.15;;;;;;;1.13;85.28;100643.44;5056264;28;20057;-77
2021/01/11 11:13:27;;;;;;;24.00;13.95;;;;;;;1.27;84.85;100640.59;5056527;28;20427;-77
2021/01/11 11:15:54;;;;;;;21.35;13.70;;;;;;;1.24;84.84;100636.25;5057052;28;20350;-77
2021/01/11 11:18:20;;;;;;;21.48;13.82;;;;;;;1.22;84.83;100604.69;5054715;28;20087;-77
2021/01/11 11:20:47;;;;;;;22.55;13.43;;;;;;;1.29;84.82;100620.38;5055437;28;20045;-78
2021/01/11 11:23:16;;;;;;;23.25;13.85;;;;;;;1.39;84.74;100623.75;5053572;28;20057;-77
2021/01/11 11:25:44;;;;;;;21.75;13.27;;;;;;;1.30;84.29;100595.84;5055572;28;20105;-75
2021/01/11 11:28:11;;;;;;;22.95;13.50;;;;;;;1.51;83.98;100613.03;5057964;28;20045;-77